sensor_id;sensor_type;location;lat;lon;timestamp;P1;durP1;ratioP1;P2;durP2;ratioP2
27580;SDS011;63557;52.302;7.964;2023-02-28T00:04:31;20.53;;;11.57;;
27580;SDS011;63557;52.302;7.964;2023-02-28T00:09:32;18.83;;;11.48;;
27580;SDS011;63557;52.302;7.964;2023-02-28T00:14:32;21.33;;;11.38;;
27580;SDS011;63557;52.302;7.964;2023-02-28T00:19:32;20.67;;;11.60;;
27580;SDS011;63557;52.302;7.964;2023-02-28T00:24:33;19.00;;;10.23;;
27580;SDS011;63557;52.302;7.964;2023-02-28T00:29:33;23.63;;;10.23;;
27580;SDS011;63557;52.302;7.964;2023-02-28T00:34:33;18.10;;;11.00;;
27580;SDS011;63557;52.302;7.964;2023-02-28T00:39:37;22.95;;;12.30;;
27580;SDS011;63557;52.302;7.964;2023-02-28T00:44:38;26.30;;;11.35;;
27580;SDS011;63557;52.302;7.964;2023-02-28T00:49:38;21.15;;;12.43;;
27580;SDS011;63557;52.302;7.964;2023-02-28T00:54:39;21.02;;;11.77;;
27580;SDS011;63557;52.302;7.964;2023-02-28T00:59:41;22.20;;;12.52;;
27580;SDS011;63557;52.302;7.964;2023-02-28T01:04:41;26.63;;;13.45;;
27580;SDS011;63557;52.302;7.964;2023-02-28T01:09:42;29.95;;;14.90;;
27580;SDS011;63557;52.302;7.964;2023-02-28T01:14:42;29.95;;;15.40;;
27580;SDS011;63557;52.302;7.964;2023-02-28T01:19:42;27.33;;;15.30;;
27580;SDS011;63557;52.302;7.964;2023-02-28T01:24:43;33.45;;;16.52;;
27580;SDS011;63557;52.302;7.964;2023-02-28T01:29:46;31.58;;;16.00;;
27580;SDS011;63557;52.302;7.964;2023-02-28T01:34:46;25.48;;;15.55;;
27580;SDS011;63557;52.302;7.964;2023-02-28T01:39:47;33.83;;;16.58;;
27580;SDS011;63557;52.302;7.964;2023-02-28T01:50:09;30.88;;;16.80;;
27580;SDS011;63557;52.302;7.964;2023-02-28T01:55:12;32.10;;;17.67;;
27580;SDS011;63557;52.302;7.964;2023-02-28T02:00:13;31.60;;;18.25;;
27580;SDS011;63557;52.302;7.964;2023-02-28T02:05:21;29.80;;;15.85;;
27580;SDS011;63557;52.302;7.964;2023-02-28T02:10:27;28.13;;;16.00;;
27580;SDS011;63557;52.302;7.964;2023-02-28T02:25:49;28.08;;;15.80;;
27580;SDS011;63557;52.302;7.964;2023-02-28T02:41:19;39.38;;;18.65;;
27580;SDS011;63557;52.302;7.964;2023-02-28T02:46:26;28.55;;;16.05;;
27580;SDS011;63557;52.302;7.964;2023-02-28T02:51:27;29.30;;;17.33;;
27580;SDS011;63557;52.302;7.964;2023-02-28T02:56:28;28.05;;;16.50;;
27580;SDS011;63557;52.302;7.964;2023-02-28T03:01:30;36.13;;;18.85;;
27580;SDS011;63557;52.302;7.964;2023-02-28T03:06:31;29.98;;;19.10;;
27580;SDS011;63557;52.302;7.964;2023-02-28T03:11:32;35.80;;;18.53;;
27580;SDS011;63557;52.302;7.964;2023-02-28T03:16:40;38.17;;;19.40;;
27580;SDS011;63557;52.302;7.964;2023-02-28T03:27:07;29.65;;;18.15;;
27580;SDS011;63557;52.302;7.964;2023-02-28T03:32:14;28.45;;;17.50;;
27580;SDS011;63557;52.302;7.964;2023-02-28T03:37:22;34.90;;;17.75;;
27580;SDS011;63557;52.302;7.964;2023-02-28T03:42:25;40.45;;;19.02;;
27580;SDS011;63557;52.302;7.964;2023-02-28T03:47:31;32.70;;;18.25;;
27580;SDS011;63557;52.302;7.964;2023-02-28T03:52:34;32.25;;;20.02;;
27580;SDS011;63557;52.302;7.964;2023-02-28T04:02:51;33.53;;;20.27;;
27580;SDS011;63557;52.302;7.964;2023-02-28T04:07:52;38.25;;;21.23;;
27580;SDS011;63557;52.302;7.964;2023-02-28T04:12:54;33.95;;;20.15;;
27580;SDS011;63557;52.302;7.964;2023-02-28T04:17:54;35.63;;;20.37;;
27580;SDS011;63557;52.302;7.964;2023-02-28T04:22:54;40.10;;;21.40;;
27580;SDS011;63557;52.302;7.964;2023-02-28T04:27:55;33.22;;;19.52;;
27580;SDS011;63557;52.302;7.964;2023-02-28T04:32:55;35.05;;;19.95;;
27580;SDS011;63557;52.302;7.964;2023-02-28T04:37:55;37.03;;;21.60;;
27580;SDS011;63557;52.302;7.964;2023-02-28T04:42:56;39.00;;;21.48;;
27580;SDS011;63557;52.302;7.964;2023-02-28T04:47:56;35.58;;;20.60;;
27580;SDS011;63557;52.302;7.964;2023-02-28T04:52:56;37.45;;;20.52;;
27580;SDS011;63557;52.302;7.964;2023-02-28T04:57:57;35.83;;;21.67;;
27580;SDS011;63557;52.302;7.964;2023-02-28T05:02:57;36.35;;;20.35;;
27580;SDS011;63557;52.302;7.964;2023-02-28T05:07:58;38.15;;;20.48;;
27580;SDS011;63557;52.302;7.964;2023-02-28T05:12:58;36.35;;;19.23;;
27580;SDS011;63557;52.302;7.964;2023-02-28T05:17:59;39.88;;;21.23;;
27580;SDS011;63557;52.302;7.964;2023-02-28T05:22:59;30.67;;;18.67;;
27580;SDS011;63557;52.302;7.964;2023-02-28T05:28:00;41.85;;;20.60;;
27580;SDS011;63557;52.302;7.964;2023-02-28T05:33:00;35.70;;;21.50;;
27580;SDS011;63557;52.302;7.964;2023-02-28T05:38:01;37.72;;;20.80;;
27580;SDS011;63557;52.302;7.964;2023-02-28T05:43:01;36.47;;;21.30;;
27580;SDS011;63557;52.302;7.964;2023-02-28T05:48:02;40.53;;;21.63;;
27580;SDS011;63557;52.302;7.964;2023-02-28T05:53:02;32.22;;;20.15;;
27580;SDS011;63557;52.302;7.964;2023-02-28T05:58:03;36.53;;;20.30;;
27580;SDS011;63557;52.302;7.964;2023-02-28T06:03:03;34.88;;;19.98;;
27580;SDS011;63557;52.302;7.964;2023-02-28T06:08:04;37.75;;;21.17;;
27580;SDS011;63557;52.302;7.964;2023-02-28T06:13:07;37.38;;;21.58;;
27580;SDS011;63557;52.302;7.964;2023-02-28T06:18:07;36.70;;;19.40;;
27580;SDS011;63557;52.302;7.964;2023-02-28T06:23:07;38.90;;;19.27;;
27580;SDS011;63557;52.302;7.964;2023-02-28T06:28:08;39.22;;;20.88;;
27580;SDS011;63557;52.302;7.964;2023-02-28T06:33:08;38.17;;;21.63;;
27580;SDS011;63557;52.302;7.964;2023-02-28T06:38:08;45.30;;;22.42;;
27580;SDS011;63557;52.302;7.964;2023-02-28T06:43:09;40.90;;;20.98;;
27580;SDS011;63557;52.302;7.964;2023-02-28T06:48:11;38.33;;;21.50;;
27580;SDS011;63557;52.302;7.964;2023-02-28T06:53:12;38.33;;;21.00;;
27580;SDS011;63557;52.302;7.964;2023-02-28T06:58:13;38.22;;;22.00;;
27580;SDS011;63557;52.302;7.964;2023-02-28T07:03:19;39.10;;;21.75;;
27580;SDS011;63557;52.302;7.964;2023-02-28T07:08:19;37.88;;;20.50;;
27580;SDS011;63557;52.302;7.964;2023-02-28T07:13:19;41.40;;;21.67;;
27580;SDS011;63557;52.302;7.964;2023-02-28T07:18:21;38.15;;;22.08;;
27580;SDS011;63557;52.302;7.964;2023-02-28T07:23:22;38.13;;;22.55;;
27580;SDS011;63557;52.302;7.964;2023-02-28T07:28:22;47.30;;;25.10;;
27580;SDS011;63557;52.302;7.964;2023-02-28T07:33:23;43.20;;;26.85;;
27580;SDS011;63557;52.302;7.964;2023-02-28T07:38:24;46.97;;;28.30;;
27580;SDS011;63557;52.302;7.964;2023-02-28T07:43:24;36.60;;;23.33;;
27580;SDS011;63557;52.302;7.964;2023-02-28T07:48:24;39.05;;;22.45;;
27580;SDS011;63557;52.302;7.964;2023-02-28T07:53:25;31.08;;;19.15;;
27580;SDS011;63557;52.302;7.964;2023-02-28T07:58:26;30.25;;;19.70;;
27580;SDS011;63557;52.302;7.964;2023-02-28T08:03:26;31.58;;;20.13;;
27580;SDS011;63557;52.302;7.964;2023-02-28T08:08:27;27.60;;;18.90;;
27580;SDS011;63557;52.302;7.964;2023-02-28T08:13:31;28.00;;;19.60;;
27580;SDS011;63557;52.302;7.964;2023-02-28T08:18:32;30.48;;;18.10;;
27580;SDS011;63557;52.302;7.964;2023-02-28T08:23:32;30.45;;;17.48;;
27580;SDS011;63557;52.302;7.964;2023-02-28T08:28:33;36.15;;;17.73;;
27580;SDS011;63557;52.302;7.964;2023-02-28T08:33:34;39.67;;;17.55;;
27580;SDS011;63557;52.302;7.964;2023-02-28T08:38:35;29.73;;;14.60;;
27580;SDS011;63557;52.302;7.964;2023-02-28T08:43:35;28.85;;;16.77;;
27580;SDS011;63557;52.302;7.964;2023-02-28T08:48:36;24.83;;;15.48;;
27580;SDS011;63557;52.302;7.964;2023-02-28T08:53:38;26.67;;;15.25;;
27580;SDS011;63557;52.302;7.964;2023-02-28T08:58:39;21.58;;;12.88;;
27580;SDS011;63557;52.302;7.964;2023-02-28T09:03:40;17.58;;;12.07;;
27580;SDS011;63557;52.302;7.964;2023-02-28T09:08:41;24.50;;;10.70;;
27580;SDS011;63557;52.302;7.964;2023-02-28T09:13:42;18.52;;;9.82;;
27580;SDS011;63557;52.302;7.964;2023-02-28T09:18:43;15.88;;;9.07;;
27580;SDS011;63557;52.302;7.964;2023-02-28T09:23:44;17.40;;;9.57;;
27580;SDS011;63557;52.302;7.964;2023-02-28T09:28:44;16.25;;;7.30;;
27580;SDS011;63557;52.302;7.964;2023-02-28T09:33:45;3.83;;;3.35;;
27580;SDS011;63557;52.302;7.964;2023-02-28T09:38:45;6.17;;;3.60;;
27580;SDS011;63557;52.302;7.964;2023-02-28T09:43:47;3.97;;;2.83;;
27580;SDS011;63557;52.302;7.964;2023-02-28T09:48:49;2.13;;;1.80;;
27580;SDS011;63557;52.302;7.964;2023-02-28T09:53:50;2.35;;;2.13;;
27580;SDS011;63557;52.302;7.964;2023-02-28T10:03:55;1.80;;;1.60;;
27580;SDS011;63557;52.302;7.964;2023-02-28T10:14:16;13.85;;;2.08;;
27580;SDS011;63557;52.302;7.964;2023-02-28T10:24:28;3.63;;;1.70;;
27580;SDS011;63557;52.302;7.964;2023-02-28T10:29:31;2.10;;;1.80;;
27580;SDS011;63557;52.302;7.964;2023-02-28T10:34:33;23.70;;;2.17;;
27580;SDS011;63557;52.302;7.964;2023-02-28T10:39:37;14.50;;;2.00;;
27580;SDS011;63557;52.302;7.964;2023-02-28T10:44:38;6.18;;;1.60;;
27580;SDS011;63557;52.302;7.964;2023-02-28T10:49:38;3.53;;;1.37;;
27580;SDS011;63557;52.302;7.964;2023-02-28T10:54:46;4.43;;;1.90;;
27580;SDS011;63557;52.302;7.964;2023-02-28T10:59:50;3.97;;;1.50;;
27580;SDS011;63557;52.302;7.964;2023-02-28T11:04:50;12.40;;;1.95;;
27580;SDS011;63557;52.302;7.964;2023-02-28T11:09:52;2.73;;;1.30;;
27580;SDS011;63557;52.302;7.964;2023-02-28T11:14:54;7.20;;;1.95;;
27580;SDS011;63557;52.302;7.964;2023-02-28T11:19:57;4.07;;;1.90;;
27580;SDS011;63557;52.302;7.964;2023-02-28T11:25:02;5.03;;;1.95;;
27580;SDS011;63557;52.302;7.964;2023-02-28T11:30:17;4.18;;;1.75;;
27580;SDS011;63557;52.302;7.964;2023-02-28T11:35:28;3.15;;;1.60;;
27580;SDS011;63557;52.302;7.964;2023-02-28T11:40:31;9.73;;;2.60;;
27580;SDS011;63557;52.302;7.964;2023-02-28T11:45:48;6.85;;;2.47;;
27580;SDS011;63557;52.302;7.964;2023-02-28T11:56:06;6.55;;;2.50;;
27580;SDS011;63557;52.302;7.964;2023-02-28T12:06:17;6.60;;;2.53;;
27580;SDS011;63557;52.302;7.964;2023-02-28T12:16:42;10.83;;;3.37;;
27580;SDS011;63557;52.302;7.964;2023-02-28T12:27:06;5.57;;;3.15;;
27580;SDS011;63557;52.302;7.964;2023-02-28T12:37:31;3.10;;;2.50;;
27580;SDS011;63557;52.302;7.964;2023-02-28T12:42:39;4.78;;;2.83;;
27580;SDS011;63557;52.302;7.964;2023-02-28T12:47:42;4.05;;;2.72;;
27580;SDS011;63557;52.302;7.964;2023-02-28T12:57:52;3.60;;;2.58;;
27580;SDS011;63557;52.302;7.964;2023-02-28T13:03:15;4.45;;;3.42;;
27580;SDS011;63557;52.302;7.964;2023-02-28T13:08:23;6.85;;;3.30;;
27580;SDS011;63557;52.302;7.964;2023-02-28T13:13:28;5.72;;;2.90;;
27580;SDS011;63557;52.302;7.964;2023-02-28T13:38:57;30.58;;;4.00;;
27580;SDS011;63557;52.302;7.964;2023-02-28T13:49:25;70.37;;;7.30;;
27580;SDS011;63557;52.302;7.964;2023-02-28T13:59:50;5.65;;;3.40;;
27580;SDS011;63557;52.302;7.964;2023-02-28T14:04:57;4.68;;;3.38;;
27580;SDS011;63557;52.302;7.964;2023-02-28T14:10:04;4.05;;;3.65;;
27580;SDS011;63557;52.302;7.964;2023-02-28T14:15:25;4.43;;;3.37;;
27580;SDS011;63557;52.302;7.964;2023-02-28T14:20:27;4.38;;;3.10;;
27580;SDS011;63557;52.302;7.964;2023-02-28T14:25:34;5.75;;;3.42;;
27580;SDS011;63557;52.302;7.964;2023-02-28T14:40:40;6.17;;;3.57;;
27580;SDS011;63557;52.302;7.964;2023-02-28T14:45:40;3.92;;;3.47;;
27580;SDS011;63557;52.302;7.964;2023-02-28T14:50:41;7.83;;;3.10;;
27580;SDS011;63557;52.302;7.964;2023-02-28T14:55:48;6.45;;;3.05;;
27580;SDS011;63557;52.302;7.964;2023-02-28T15:00:50;16.73;;;3.70;;
27580;SDS011;63557;52.302;7.964;2023-02-28T15:05:54;6.28;;;3.35;;
27580;SDS011;63557;52.302;7.964;2023-02-28T15:10:56;5.72;;;3.40;;
27580;SDS011;63557;52.302;7.964;2023-02-28T15:16:04;4.63;;;3.42;;
27580;SDS011;63557;52.302;7.964;2023-02-28T15:21:27;3.38;;;3.00;;
27580;SDS011;63557;52.302;7.964;2023-02-28T15:26:32;4.38;;;2.65;;
27580;SDS011;63557;52.302;7.964;2023-02-28T15:31:37;9.02;;;3.97;;
27580;SDS011;63557;52.302;7.964;2023-02-28T15:36:41;4.80;;;3.63;;
27580;SDS011;63557;52.302;7.964;2023-02-28T15:41:41;6.00;;;3.23;;
27580;SDS011;63557;52.302;7.964;2023-02-28T15:46:43;8.47;;;3.80;;
27580;SDS011;63557;52.302;7.964;2023-02-28T15:51:43;7.15;;;3.85;;
27580;SDS011;63557;52.302;7.964;2023-02-28T15:56:44;7.13;;;3.93;;
27580;SDS011;63557;52.302;7.964;2023-02-28T16:01:46;5.85;;;3.50;;
27580;SDS011;63557;52.302;7.964;2023-02-28T16:06:53;4.60;;;3.80;;
27580;SDS011;63557;52.302;7.964;2023-02-28T16:12:00;5.82;;;3.63;;
27580;SDS011;63557;52.302;7.964;2023-02-28T16:17:05;5.65;;;3.63;;
27580;SDS011;63557;52.302;7.964;2023-02-28T16:22:07;7.30;;;4.13;;
27580;SDS011;63557;52.302;7.964;2023-02-28T16:27:11;5.47;;;3.63;;
27580;SDS011;63557;52.302;7.964;2023-02-28T16:32:15;6.95;;;3.70;;
27580;SDS011;63557;52.302;7.964;2023-02-28T16:37:17;9.88;;;4.20;;
27580;SDS011;63557;52.302;7.964;2023-02-28T16:42:21;14.32;;;4.55;;
27580;SDS011;63557;52.302;7.964;2023-02-28T16:47:23;6.80;;;3.47;;
27580;SDS011;63557;52.302;7.964;2023-02-28T16:52:23;13.20;;;3.80;;
27580;SDS011;63557;52.302;7.964;2023-02-28T16:57:24;12.20;;;4.20;;
27580;SDS011;63557;52.302;7.964;2023-02-28T17:02:24;7.95;;;4.55;;
27580;SDS011;63557;52.302;7.964;2023-02-28T17:07:24;5.50;;;4.33;;
27580;SDS011;63557;52.302;7.964;2023-02-28T17:12:25;9.52;;;4.50;;
27580;SDS011;63557;52.302;7.964;2023-02-28T17:17:25;6.80;;;4.60;;
27580;SDS011;63557;52.302;7.964;2023-02-28T17:22:26;9.85;;;4.60;;
27580;SDS011;63557;52.302;7.964;2023-02-28T17:27:26;10.03;;;5.40;;
27580;SDS011;63557;52.302;7.964;2023-02-28T17:32:26;8.32;;;4.72;;
27580;SDS011;63557;52.302;7.964;2023-02-28T17:37:27;9.27;;;5.65;;
27580;SDS011;63557;52.302;7.964;2023-02-28T17:42:28;11.70;;;6.45;;
27580;SDS011;63557;52.302;7.964;2023-02-28T17:47:28;17.43;;;7.37;;
27580;SDS011;63557;52.302;7.964;2023-02-28T17:52:28;12.60;;;6.57;;
27580;SDS011;63557;52.302;7.964;2023-02-28T17:57:29;12.45;;;6.65;;
27580;SDS011;63557;52.302;7.964;2023-02-28T18:02:29;14.68;;;8.93;;
27580;SDS011;63557;52.302;7.964;2023-02-28T18:07:30;19.80;;;10.77;;
27580;SDS011;63557;52.302;7.964;2023-02-28T18:12:30;28.20;;;11.93;;
27580;SDS011;63557;52.302;7.964;2023-02-28T18:17:31;19.02;;;10.38;;
27580;SDS011;63557;52.302;7.964;2023-02-28T18:22:31;25.77;;;11.10;;
27580;SDS011;63557;52.302;7.964;2023-02-28T18:27:32;20.10;;;11.23;;
27580;SDS011;63557;52.302;7.964;2023-02-28T18:32:32;15.90;;;10.27;;
27580;SDS011;63557;52.302;7.964;2023-02-28T18:37:32;22.50;;;11.40;;
27580;SDS011;63557;52.302;7.964;2023-02-28T18:42:33;20.23;;;9.87;;
27580;SDS011;63557;52.302;7.964;2023-02-28T18:47:33;18.90;;;9.27;;
27580;SDS011;63557;52.302;7.964;2023-02-28T18:52:34;22.50;;;11.20;;
27580;SDS011;63557;52.302;7.964;2023-02-28T18:57:34;20.83;;;10.67;;
27580;SDS011;63557;52.302;7.964;2023-02-28T19:02:35;24.33;;;11.83;;
27580;SDS011;63557;52.302;7.964;2023-02-28T19:07:36;23.13;;;13.35;;
27580;SDS011;63557;52.302;7.964;2023-02-28T19:12:36;21.88;;;11.63;;
27580;SDS011;63557;52.302;7.964;2023-02-28T19:17:37;26.42;;;13.20;;
27580;SDS011;63557;52.302;7.964;2023-02-28T19:22:38;21.38;;;11.73;;
27580;SDS011;63557;52.302;7.964;2023-02-28T19:27:38;27.48;;;15.27;;
27580;SDS011;63557;52.302;7.964;2023-02-28T19:32:39;25.60;;;14.93;;
27580;SDS011;63557;52.302;7.964;2023-02-28T19:37:39;28.50;;;15.88;;
27580;SDS011;63557;52.302;7.964;2023-02-28T19:42:40;23.92;;;14.68;;
27580;SDS011;63557;52.302;7.964;2023-02-28T19:47:40;21.63;;;13.55;;
27580;SDS011;63557;52.302;7.964;2023-02-28T19:52:41;22.63;;;11.95;;
27580;SDS011;63557;52.302;7.964;2023-02-28T19:57:42;23.30;;;13.38;;
27580;SDS011;63557;52.302;7.964;2023-02-28T20:02:42;25.67;;;14.20;;
27580;SDS011;63557;52.302;7.964;2023-02-28T20:07:43;23.23;;;13.43;;
27580;SDS011;63557;52.302;7.964;2023-02-28T20:12:43;22.98;;;13.25;;
27580;SDS011;63557;52.302;7.964;2023-02-28T20:17:43;27.67;;;14.40;;
27580;SDS011;63557;52.302;7.964;2023-02-28T20:22:45;22.08;;;13.88;;
27580;SDS011;63557;52.302;7.964;2023-02-28T20:27:46;24.35;;;14.25;;
27580;SDS011;63557;52.302;7.964;2023-02-28T20:32:46;27.70;;;13.52;;
27580;SDS011;63557;52.302;7.964;2023-02-28T20:37:46;21.88;;;11.90;;
27580;SDS011;63557;52.302;7.964;2023-02-28T20:42:47;20.45;;;12.15;;
27580;SDS011;63557;52.302;7.964;2023-02-28T20:47:47;31.33;;;14.43;;
27580;SDS011;63557;52.302;7.964;2023-02-28T20:52:47;23.67;;;13.20;;
27580;SDS011;63557;52.302;7.964;2023-02-28T20:57:48;28.25;;;12.38;;
27580;SDS011;63557;52.302;7.964;2023-02-28T21:02:49;17.40;;;11.73;;
27580;SDS011;63557;52.302;7.964;2023-02-28T21:07:49;19.33;;;10.87;;
27580;SDS011;63557;52.302;7.964;2023-02-28T21:12:49;20.33;;;10.93;;
27580;SDS011;63557;52.302;7.964;2023-02-28T21:17:52;19.13;;;11.73;;
27580;SDS011;63557;52.302;7.964;2023-02-28T21:22:52;17.92;;;10.95;;
27580;SDS011;63557;52.302;7.964;2023-02-28T21:27:53;20.77;;;10.85;;
27580;SDS011;63557;52.302;7.964;2023-02-28T21:32:54;16.63;;;9.98;;
27580;SDS011;63557;52.302;7.964;2023-02-28T21:37:56;16.63;;;9.98;;
27580;SDS011;63557;52.302;7.964;2023-02-28T21:42:57;14.68;;;9.52;;
27580;SDS011;63557;52.302;7.964;2023-02-28T21:47:57;20.45;;;12.82;;
27580;SDS011;63557;52.302;7.964;2023-02-28T21:52:57;23.20;;;13.60;;
27580;SDS011;63557;52.302;7.964;2023-02-28T21:57:58;27.48;;;13.73;;
27580;SDS011;63557;52.302;7.964;2023-02-28T22:02:58;23.73;;;11.55;;
27580;SDS011;63557;52.302;7.964;2023-02-28T22:07:58;17.63;;;11.43;;
27580;SDS011;63557;52.302;7.964;2023-02-28T22:12:59;20.15;;;12.52;;
27580;SDS011;63557;52.302;7.964;2023-02-28T22:18:00;19.52;;;11.95;;
27580;SDS011;63557;52.302;7.964;2023-02-28T22:23:01;18.83;;;11.45;;
27580;SDS011;63557;52.302;7.964;2023-02-28T22:28:01;25.00;;;11.43;;
27580;SDS011;63557;52.302;7.964;2023-02-28T22:33:02;25.92;;;12.13;;
27580;SDS011;63557;52.302;7.964;2023-02-28T22:38:02;21.45;;;12.20;;
27580;SDS011;63557;52.302;7.964;2023-02-28T22:43:02;17.02;;;10.82;;
27580;SDS011;63557;52.302;7.964;2023-02-28T22:48:03;20.55;;;11.52;;
27580;SDS011;63557;52.302;7.964;2023-02-28T22:53:04;21.75;;;12.70;;
27580;SDS011;63557;52.302;7.964;2023-02-28T22:58:04;20.83;;;14.30;;
27580;SDS011;63557;52.302;7.964;2023-02-28T23:03:05;24.13;;;12.93;;
27580;SDS011;63557;52.302;7.964;2023-02-28T23:08:05;25.63;;;13.93;;
27580;SDS011;63557;52.302;7.964;2023-02-28T23:13:05;28.60;;;16.00;;
27580;SDS011;63557;52.302;7.964;2023-02-28T23:18:06;24.70;;;12.65;;
27580;SDS011;63557;52.302;7.964;2023-02-28T23:23:06;22.63;;;12.85;;
27580;SDS011;63557;52.302;7.964;2023-02-28T23:28:09;26.00;;;12.10;;
27580;SDS011;63557;52.302;7.964;2023-02-28T23:33:09;18.10;;;10.57;;
27580;SDS011;63557;52.302;7.964;2023-02-28T23:38:09;17.47;;;10.50;;
27580;SDS011;63557;52.302;7.964;2023-02-28T23:43:10;21.02;;;11.00;;
27580;SDS011;63557;52.302;7.964;2023-02-28T23:48:11;19.35;;;10.73;;
27580;SDS011;63557;52.302;7.964;2023-02-28T23:53:12;19.60;;;11.65;;
27580;SDS011;63557;52.302;7.964;2023-02-28T23:58:13;25.53;;;12.67;;
